Etusivu
METAR-TAF:

METAR-TAF

Lentoasemat :

Gaspé, Quebec, Kanada

Leveyspiiri: 48-46N, Pituuspiiri: 064-29W, korkeus merenpinnasta: 33 m

Tämänhetkinen sää

Tämä raportti tehtiin 1 tunti ja 6 minuuttia sitten, kello 04.00 UTC
Tuuli 2 kn lännestä/lounaasta
Lämpötila 2°C
Kosteus 87%
Ilmanpaine 1015 hPa
Näkyvyys: 24.1 km
selkeää

METAR: CYGP 250400Z 25002KT 15SM SKC 02/00 A2997 RMK SLP153

Aika: 01:06 (05:06 UTC)

Sääennuste

Tämä raportti tehtiin 3 tuntia ja 28 minuuttia sitten, kello 01.38 UTC
Ennuste voimassa 25. päivästä klo 02 UTC - 25. päivään klo 14 UTC
Tuuli 3 kn eri suunnista
Näkyvyys: 10 km
Muutamia pilviä 12000 ft:n korkeudessa
Tulossa
25. päivästä klo 12 UTC - 25. päivään klo 14 UTC
Tuuli 6 kn idästä

TAF: CYGP 250138Z 2502/2514 VRB03KT P6SM FEW120 BECMG 2512/2514 08006KT RMK NXT FCST BY 250800Z

Säähavainnot ja -ennusteet yli 4000 lentoasemalta (METAR- ja TAF-raportit).

Käytössä olevat sääasemat on merkitty karttaan keltaisilla ja punaisilla pisteillä.

Aseta hiiri pisteen päälle nähdäksesi sääaseman nimen.

Klikkaa sitten nähdäksesi säähavainnot ja -ennusteet.

Kartan vaihtaminen: klikkaa mustalla rastilla varustettuja vihreitä pisteitä, niin voit zoomata sisään; viivalla varustettua vihreää pistettä, niin voit zoomata ulos tai vihreitä nuolia, niin pääset viereisille kartoille.


METAR-TAF: